Terminal Aerodrome Forecast
Issued by NWS

Home | Current Version | Previous Version | Text Only | Print | Product List | Glossary On
Versions: 1 2 3 4 5 6 7 8 9 10 11 12 13 14 15 16
000
FTUS44 KLIX 012300
TAFMCB
TAF
KMCB 012321Z 0200/0224 11005KT 6SM BR OVC007
      TEMPO 0200/0202 2SM SHRA BR SCT007 BKN035
     FM020300 15006KT 1 1/2SM BR OVC007
     FM020600 15005KT 1/2SM FG OVC003
     FM021000 00000KT 1/2SM FG OVC003
     FM021500 VRB03KT 2SM BR OVC003
     FM021800 12004KT 5SM BR OVC005=

USA.gov is the U.S. government's official web portal to all federal, state and local government web resources and services.